This is the latest recevied weather packets stored in our database for station/object TA8CW-13. If no packets are shown the sender has not sent any weather packets the latest 10 day(s).
| Time | Temp. | Humidity | Pressure | Rain* | Wind** | Luminosity | Snow |
|---|---|---|---|---|---|---|---|
| 1777804647 | 18.89° C | 66% | 1005.7 hPa | 0 mm | - | 587 W/m² | - |
| 1777801339 | 18.89° C | 65% | 1005.9 hPa | 0 mm | - | 633 W/m² | - |
| 1777796388 | 16.67° C | 73% | 1006.8 hPa | 0 mm | - | 389 W/m² | - |
| 1777789660 | 15° C | 80% | 1008.5 hPa | 0 mm | - | 268 W/m² | - |
| 1777780583 | 12.78° C | 74% | 1009 hPa | 1.02 mm | - | 1 W/m² | - |
| 1777766283 | 13.33° C | 73% | 1009.9 hPa | 0 mm | - | 0 W/m² | - |
| 1777763164 | 13.33° C | 73% | 1009.9 hPa | 0 mm | - | 0 W/m² | - |
| 1777760467 | 13.89° C | 73% | 1010.6 hPa | 0 mm | - | 0 W/m² | - |
| 1777757692 | 13.89° C | 65% | 1010.1 hPa | 0 mm | - | 0 W/m² | - |
| 1777755207 | 14.44° C | 61% | 1010.7 hPa | 0 mm | - | 0 W/m² | - |
| 1777751981 | 15° C | 59% | 1010.7 hPa | 0 mm | - | 0 W/m² | - |
| 1777749211 | 15.56° C | 59% | 1010.7 hPa | 0 mm | - | 0 W/m² | - |
| 1777744835 | 16.11° C | 53% | 1010.8 hPa | 0 mm | - | 0 W/m² | - |
| 1777741587 | 16.67° C | 47% | 1010.5 hPa | 0 mm | - | 1 W/m² | - |
| 1777738157 | 17.78° C | 39% | 1010.2 hPa | 0 mm | - | 63 W/m² | - |
| 1777735496 | 18.89° C | 32% | 1009.5 hPa | 0 mm | - | 254 W/m² | - |
| 1777732166 | 19.44° C | 31% | 1009.4 hPa | 0 mm | - | 346 W/m² | - |
| 1777728307 | 20° C | 36% | 1009.1 hPa | 0 mm | - | 489 W/m² | - |
| 1777723062 | 20° C | 40% | 1009.6 hPa | 0 mm | - | 639 W/m² | - |
| 1777720126 | 20° C | 40% | 1009.6 hPa | 0 mm | - | 639 W/m² | - |
| 1777716841 | 19.44° C | 44% | 1010.7 hPa | 0 mm | - | 740 W/m² | - |
| 1777713592 | 18.89° C | 45% | 1011.1 hPa | 0 mm | - | 807 W/m² | - |
| 1777709267 | 17.78° C | 50% | 1011.7 hPa | 0 mm | - | 779 W/m² | - |
| 1777703163 | 15.56° C | 68% | 1012.4 hPa | 0 mm | - | 453 W/m² | - |
| 1777696084 | 11.67° C | 91% | 1012.2 hPa | 0 mm | - | 108 W/m² | - |
* Rain latest hour (hover to see other rain measurements)
** Current wind speed in m/s (hover to see current wind gust speed)